Terminal Aerodrome Forecast
Issued by NWS Cleveland, OH

Home | Current Version | Previous Version | Graphics & Text | Print | Product List | Glossary Off
Versions: 1 2 3 4 5 6 7 8 9 10 11 12 13 14 15 16 17 18 19 20 21 22

000
FTUS41 KCLE 020200 AAB
TAFTOL
TAF AMD
KTOL 020258Z 0203/0224 12003KT 2SM BR FEW100 SCT250
      TEMPO 0209/0213 1/2SM FG SCT002
     FM021300 15006KT 5SM BR SCT100 BKN200
     FM021500 18010KT P6SM SCT080 BKN150
     FM022300 15005KT P6SM SCT050 OVC100=

USA.gov is the U.S. government's official web portal to all federal, state and local government web resources and services.